createdAt,value
2022-08-02T00:02:28.620Z,48.51
2022-08-02T00:07:31.496Z,48.92
2022-08-02T00:12:35.603Z,49.07
2022-08-02T00:17:38.465Z,48.82
2022-08-02T00:22:41.208Z,48.66
2022-08-02T00:27:45.331Z,48.65
2022-08-02T00:32:48.170Z,48.60
2022-08-02T00:37:50.901Z,48.83
2022-08-02T00:43:12.584Z,49.38
2022-08-02T00:48:15.404Z,49.30
2022-08-02T00:53:18.249Z,49.20
2022-08-02T00:58:22.466Z,49.15
2022-08-02T01:03:25.404Z,49.74
2022-08-02T01:08:29.532Z,49.39
2022-08-02T01:13:35.891Z,49.44
2022-08-02T01:18:41.766Z,49.36
2022-08-02T01:23:55.061Z,49.03
2022-08-02T01:29:01.581Z,49.43
2022-08-02T01:34:05.628Z,50.06
2022-08-02T01:39:09.563Z,50.25
2022-08-02T01:44:13.748Z,50.26
2022-08-02T01:49:19.075Z,50.14
2022-08-02T01:54:21.910Z,50.21
2022-08-02T01:59:25.977Z,50.37
2022-08-02T02:04:29.572Z,51.18
2022-08-02T02:09:32.383Z,51.51
2022-08-02T02:14:36.559Z,51.86
2022-08-02T02:19:39.427Z,51.24
2022-08-02T02:24:42.130Z,51.04
2022-08-02T02:29:47.684Z,50.90
2022-08-02T02:34:50.962Z,51.46
2022-08-02T02:39:54.992Z,50.83
2022-08-02T02:44:59.529Z,51.10
2022-08-02T02:50:02.332Z,50.80
2022-08-02T02:55:05.602Z,50.72
2022-08-02T03:00:11.461Z,51.02
2022-08-02T03:05:14.314Z,51.32
2022-08-02T03:10:17.015Z,51.55
2022-08-02T03:15:21.129Z,51.33
2022-08-02T03:20:23.945Z,50.74
2022-08-02T03:25:26.661Z,52.03
2022-08-02T03:30:30.737Z,52.65
2022-08-02T03:35:33.529Z,52.49
2022-08-02T03:40:36.311Z,52.02
2022-08-02T03:45:41.151Z,51.62
2022-08-02T03:50:44.011Z,52.91
2022-08-02T03:55:46.868Z,52.92
2022-08-02T04:00:51.362Z,53.50
2022-08-02T04:05:59.368Z,53.97
2022-08-02T04:11:24.525Z,54.27
2022-08-02T04:16:35.154Z,55.00
2022-08-02T04:21:49.037Z,54.03
2022-08-02T04:26:57.737Z,53.84
2022-08-02T04:32:05.920Z,52.70
2022-08-02T04:37:08.659Z,51.60
2022-08-02T04:42:11.754Z,51.81
2022-08-02T04:47:16.039Z,52.12
2022-08-02T04:52:18.826Z,52.49
2022-08-02T04:57:39.010Z,53.68
2022-08-02T05:02:57.234Z,53.57
2022-08-02T05:08:00.242Z,52.74
2022-08-02T05:13:05.570Z,51.83
2022-08-02T05:18:09.686Z,51.21
2022-08-02T05:23:12.959Z,50.90
2022-08-02T05:28:15.879Z,50.82
2022-08-02T05:33:20.007Z,50.50
2022-08-02T05:38:23.486Z,49.65
2022-08-02T05:43:29.022Z,50.11
2022-08-02T05:48:33.133Z,49.10
2022-08-02T05:53:38.149Z,48.75
2022-08-02T05:58:45.419Z,48.31
2022-08-02T06:03:52.189Z,46.45
2022-08-02T06:08:58.874Z,45.58
2022-08-02T06:14:01.629Z,45.05
2022-08-02T06:19:06.276Z,44.89
2022-08-02T06:24:09.494Z,45.44
2022-08-02T06:29:12.407Z,45.66
2022-08-02T06:34:16.445Z,44.87
2022-08-02T06:39:23.357Z,44.17
2022-08-02T06:44:47.969Z,44.41
2022-08-02T06:49:54.690Z,44.36
2022-08-02T06:54:58.546Z,44.78
2022-08-02T07:00:02.877Z,44.51
2022-08-02T07:05:07.459Z,44.27
2022-08-02T07:10:10.574Z,44.63
2022-08-02T07:15:13.830Z,44.85
2022-08-02T07:20:17.985Z,44.71
2022-08-02T07:25:21.031Z,45.96
2022-08-02T07:30:24.061Z,45.62
2022-08-02T07:35:28.781Z,46.05
2022-08-02T07:40:34.653Z,45.95
2022-08-02T07:45:54.285Z,45.69
2022-08-02T07:51:01.334Z,45.98
2022-08-02T07:56:04.200Z,46.37
2022-08-02T08:01:07.046Z,46.29
2022-08-02T08:06:11.313Z,46.57
2022-08-02T08:11:14.296Z,46.45
2022-08-02T08:16:17.060Z,46.56
2022-08-02T08:21:21.184Z,45.71
2022-08-02T08:26:23.946Z,46.14
2022-08-02T08:31:26.707Z,45.81
2022-08-02T08:36:31.402Z,46.04
2022-08-02T08:41:34.269Z,45.75
2022-08-02T08:46:39.199Z,46.19
2022-08-02T08:51:44.710Z,46.64
2022-08-02T08:56:47.590Z,46.57
2022-08-02T09:01:51.296Z,46.67
2022-08-02T09:06:55.630Z,46.32
2022-08-02T09:12:14.408Z,45.93
2022-08-02T09:17:22.394Z,45.89
2022-08-02T09:22:26.489Z,45.78
2022-08-02T09:27:29.262Z,46.02
2022-08-02T09:32:33.225Z,46.07
2022-08-02T09:37:37.274Z,46.12
2022-08-02T09:42:42.334Z,46.30
2022-08-02T09:47:45.191Z,46.17
2022-08-02T09:52:49.249Z,46.38
2022-08-02T09:57:51.990Z,46.15
2022-08-02T10:03:07.866Z,46.13
2022-08-02T10:08:12.038Z,46.85
2022-08-02T10:13:15.015Z,46.49
2022-08-02T10:18:38.235Z,46.73
2022-08-02T10:23:44.111Z,46.82
2022-08-02T10:28:50.460Z,46.26
2022-08-02T10:33:53.859Z,46.36
2022-08-02T10:38:58.739Z,46.29
2022-08-02T10:44:01.757Z,46.59
2022-08-02T10:49:37.356Z,46.21
2022-08-02T10:54:36.032Z,46.78
2022-08-02T10:59:38.913Z,46.21
2022-08-02T11:05:04.346Z,45.80
2022-08-02T11:10:31.489Z,45.93
2022-08-02T11:15:52.067Z,45.96
2022-08-02T11:21:22.002Z,45.92
2022-08-02T11:26:45.516Z,45.92
2022-08-02T11:31:48.942Z,45.74
2022-08-02T11:36:52.327Z,45.25
2022-08-02T11:41:57.922Z,44.53
2022-08-02T11:47:02.572Z,43.70
2022-08-02T11:52:06.560Z,43.29
2022-08-02T11:57:20.870Z,42.79
2022-08-02T12:02:25.933Z,43.44
2022-08-02T12:07:35.122Z,43.56
2022-08-02T12:12:50.219Z,43.65
2022-08-02T12:18:12.119Z,43.96
2022-08-02T12:23:14.904Z,43.80
2022-08-02T12:28:22.129Z,43.97
2022-08-02T12:33:25.698Z,43.96
2022-08-02T12:38:28.452Z,44.07
2022-08-02T12:43:32.694Z,44.39
2022-08-02T12:48:37.737Z,44.47
2022-08-02T12:53:40.728Z,44.53
2022-08-02T12:58:51.274Z,44.59
2022-08-02T13:04:09.554Z,44.62
2022-08-02T13:09:16.841Z,44.95
2022-08-02T13:14:21.091Z,44.76
2022-08-02T13:19:23.924Z,44.91
2022-08-02T13:24:38.028Z,44.97
2022-08-02T13:29:45.727Z,45.65
2022-08-02T13:34:48.530Z,45.83
2022-08-02T13:40:18.655Z,45.61
2022-08-02T13:45:15.781Z,45.81
2022-08-02T13:50:18.654Z,45.72
2022-08-02T13:55:21.632Z,45.95
2022-08-02T14:00:34.826Z,45.99
2022-08-02T14:05:48.311Z,45.98
2022-08-02T14:10:51.875Z,46.12
2022-08-02T14:15:56.406Z,46.12
2022-08-02T14:20:59.258Z,46.01
2022-08-02T14:26:02.205Z,46.04
2022-08-02T14:31:06.622Z,46.20
2022-08-02T14:36:14.678Z,46.14
2022-08-02T14:41:17.451Z,46.41
2022-08-02T14:46:21.535Z,46.44
2022-08-02T14:51:24.273Z,46.34
2022-08-02T14:56:27.413Z,46.29
2022-08-02T15:01:32.505Z,46.25
2022-08-02T15:06:35.271Z,45.90
2022-08-02T15:11:47.405Z,46.04
2022-08-02T15:16:58.117Z,45.78
2022-08-02T15:22:08.906Z,45.90
2022-08-02T15:27:15.864Z,45.83
2022-08-02T15:32:20.086Z,45.86
2022-08-02T15:37:22.798Z,45.85
2022-08-02T15:42:30.776Z,45.45
2022-08-02T15:47:35.311Z,45.30
2022-08-02T15:52:38.072Z,44.98
2022-08-02T15:57:40.772Z,45.04
2022-08-02T16:02:45.193Z,44.57
2022-08-02T16:07:49.806Z,44.92
2022-08-02T16:12:52.619Z,44.75
2022-08-02T16:17:56.785Z,44.61
2022-08-02T16:22:59.605Z,44.96
2022-08-02T16:28:08.205Z,45.06
2022-08-02T16:33:12.433Z,44.77
2022-08-02T16:38:15.230Z,44.73
2022-08-02T16:43:18.035Z,45.29
2022-08-02T16:48:22.171Z,45.26
2022-08-02T16:53:36.315Z,45.17
2022-08-02T16:58:49.789Z,44.58
2022-08-02T17:03:57.969Z,44.01
2022-08-02T17:09:01.142Z,44.04
2022-08-02T17:14:03.930Z,44.54
2022-08-02T17:19:08.115Z,44.82
2022-08-02T17:24:11.007Z,44.89
2022-08-02T17:29:17.697Z,45.22
2022-08-02T17:34:26.975Z,45.30
2022-08-02T17:39:34.066Z,43.84
2022-08-02T17:44:38.387Z,44.90
2022-08-02T17:49:44.421Z,44.63
2022-08-02T17:54:51.670Z,44.93
2022-08-02T18:00:03.906Z,44.83
2022-08-02T18:05:13.367Z,45.00
2022-08-02T18:10:18.260Z,45.12
2022-08-02T18:15:21.646Z,44.74
2022-08-02T18:20:26.107Z,44.75
2022-08-02T18:25:36.258Z,44.99
2022-08-02T18:30:40.854Z,44.87
2022-08-02T18:35:44.965Z,44.76
2022-08-02T18:40:51.201Z,44.91
2022-08-02T18:46:05.524Z,44.83
2022-08-02T18:51:19.059Z,44.94
2022-08-02T18:56:24.651Z,45.45
2022-08-02T19:01:33.818Z,45.16
2022-08-02T19:06:40.216Z,45.64
2022-08-02T19:11:47.212Z,45.31
2022-08-02T19:16:51.376Z,45.65
2022-08-02T19:22:17.319Z,45.76
2022-08-02T19:27:25.939Z,45.76
2022-08-02T19:37:53.151Z,45.82
2022-08-02T19:44:20.966Z,45.64
2022-08-02T19:53:49.386Z,45.53
2022-08-02T19:58:53.637Z,45.21
2022-08-02T20:03:56.474Z,45.27
2022-08-02T20:09:01.040Z,45.11
2022-08-02T20:14:05.180Z,45.31
2022-08-02T20:19:08.667Z,45.60
2022-08-02T20:24:13.160Z,45.18
2022-08-02T20:29:17.486Z,45.19
2022-08-02T20:34:39.142Z,45.84
2022-08-02T20:39:43.740Z,45.57
2022-08-02T20:44:46.692Z,45.60
2022-08-02T20:50:04.515Z,45.26
2022-08-02T20:55:09.992Z,45.64
2022-08-02T21:00:20.712Z,45.36
2022-08-02T21:05:26.960Z,45.51
2022-08-02T21:10:50.257Z,45.57
2022-08-02T21:15:57.349Z,45.21
2022-08-02T21:26:32.462Z,45.25
2022-08-02T21:31:36.475Z,45.08
2022-08-02T21:36:39.553Z,44.92
2022-08-02T21:41:45.847Z,45.15
2022-08-02T21:46:50.937Z,44.98
2022-08-02T21:51:54.626Z,44.75
2022-08-02T21:56:58.715Z,44.67
2022-08-02T22:02:01.812Z,44.65
2022-08-02T22:07:04.649Z,44.85
2022-08-02T22:12:10.079Z,44.81
2022-08-02T22:17:13.483Z,44.93
2022-08-02T22:22:16.988Z,44.50
2022-08-02T22:27:21.307Z,44.83
2022-08-02T22:32:38.094Z,45.20
2022-08-02T22:38:16.501Z,45.51
2022-08-02T22:43:04.911Z,44.88
2022-08-02T22:48:07.900Z,45.55
2022-08-02T22:53:10.656Z,45.51
2022-08-02T22:58:16.530Z,45.77
2022-08-02T22:58:53.231Z,45.51
2022-08-02T22:59:00.635Z,45.56
2022-08-02T22:59:02.551Z,44.89
2022-08-02T23:03:22.437Z,45.49
2022-08-02T23:08:25.218Z,44.67
2022-08-02T23:13:29.339Z,44.61
2022-08-02T23:18:49.662Z,45.06
2022-08-02T23:23:52.470Z,46.30
2022-08-02T23:28:56.586Z,46.24
2022-08-02T23:34:04.386Z,46.51
2022-08-02T23:39:08.029Z,46.23
2022-08-02T23:44:14.136Z,46.77
2022-08-02T23:49:17.738Z,46.73
2022-08-02T23:54:20.745Z,46.60
2022-08-02T23:59:24.876Z,46.56
